This is the latest recevied weather packets stored in our database for station/object TVARMINN. If no packets are shown the sender has not sent any weather packets the latest 10 day(s).
| Time | Temp. | Humidity | Pressure | Rain* | Wind** | Luminosity | Snow |
|---|---|---|---|---|---|---|---|
| 1788356678 | 18.33° C | 83% | 1008.6 hPa | 0 mm | - | - | - |
| 1788355478 | 18.33° C | 82% | 1008.6 hPa | 0 mm | - | - | - |
| 1788354278 | 18.33° C | 82% | 1008.7 hPa | 0 mm | - | - | - |
| 1788351877 | 18.33° C | 82% | 1008.9 hPa | 0 mm | - | - | - |
| 1788349478 | 18.33° C | 82% | 1009 hPa | 0 mm | - | - | - |
| 1788348279 | 17.78° C | 80% | 1009.1 hPa | 0 mm | - | - | - |
| 1788347078 | 17.78° C | 79% | 1009.2 hPa | 0 mm | - | - | - |
| 1788344678 | 17.22° C | 76% | 1009.1 hPa | 0 mm | - | - | - |
| 1788343477 | 17.22° C | 76% | 1009.1 hPa | 0 mm | - | - | - |
| 1788339878 | 16.67° C | 80% | 1008.9 hPa | 0 mm | - | - | - |
| 1788337479 | 16.11° C | 82% | 1009 hPa | 0 mm | - | - | - |
| 1788336277 | 15° C | 85% | 1008.8 hPa | 0 mm | - | - | - |
| 1788335077 | 15° C | 84% | 1008.8 hPa | 0 mm | - | - | - |
| 1788333875 | 13.89° C | 87% | 1008.7 hPa | 0 mm | - | - | - |
| 1788332467 | 13.33° C | 91% | 1008.5 hPa | 0 mm | - | - | - |
| 1788331476 | 13.89° C | 89% | 1008.4 hPa | 0 mm | - | - | - |
| 1788330277 | 14.44° C | 88% | 1008.4 hPa | 0 mm | - | - | - |
| 1788329079 | 13.33° C | 90% | 1008.4 hPa | 0 mm | - | - | - |
| 1788327877 | 13.33° C | 92% | 1008.3 hPa | 0 mm | - | - | - |
| 1788326678 | 12.78° C | 95% | 1008.2 hPa | 0 mm | - | - | - |
| 1788325478 | 12.78° C | 98% | 1008.4 hPa | 0 mm | - | - | - |
| 1788323077 | 11.67° C | 100% | 1008.3 hPa | 0 mm | - | - | - |
| 1788301478 | 13.33° C | 99% | 1008 hPa | 0 mm | - | - | - |
| 1788300277 | 13.33° C | 100% | 1008.1 hPa | 0 mm | - | - | - |
| 1788299077 | 13.89° C | 99% | 1008.1 hPa | 0 mm | - | - | - |
* Rain latest hour (hover to see other rain measurements)
** Current wind speed in m/s (hover to see current wind gust speed)